createdAt,value
2022-08-18T00:00:02.934Z,23.7
2022-08-18T00:20:03.023Z,23.4
2022-08-18T00:40:02.437Z,23.1
2022-08-18T01:00:03.056Z,22.9
2022-08-18T01:20:02.648Z,22.8
2022-08-18T01:41:00.934Z,22.7
2022-08-18T02:00:02.900Z,22.7
2022-08-18T02:20:02.467Z,22.4
2022-08-18T02:40:02.701Z,22.1
2022-08-18T03:00:02.214Z,22.1
2022-08-18T03:20:03.003Z,22.3
2022-08-18T03:40:02.573Z,22.1
2022-08-18T04:00:02.871Z,21.9
2022-08-18T04:20:02.384Z,21.6
2022-08-18T04:40:02.857Z,21.6
2022-08-18T05:00:02.179Z,21.8
2022-08-18T05:20:02.689Z,22.1
2022-08-18T05:40:06.329Z,22.5
2022-08-18T06:00:02.890Z,22.9
2022-08-18T06:20:02.522Z,23.4
2022-08-18T06:40:02.923Z,24.1
2022-08-18T07:00:02.375Z,24.9
2022-08-18T07:20:03.095Z,25.6
2022-08-18T07:40:02.589Z,26.2
2022-08-18T08:00:02.404Z,26.7
2022-08-18T08:20:03.135Z,27.1
2022-08-18T08:40:02.672Z,27.5
2022-08-18T09:00:02.246Z,28.8
2022-08-18T09:20:02.762Z,30.7
2022-08-18T09:40:11.136Z,32.4
2022-08-18T10:00:02.445Z,34.1
2022-08-18T10:20:02.990Z,35.6
2022-08-18T10:40:03.019Z,36.6
2022-08-18T11:00:02.664Z,37.3
2022-08-18T11:20:02.465Z,37.6
2022-08-18T11:40:03.022Z,38
2022-08-18T12:00:02.785Z,38
2022-08-18T12:20:02.311Z,36.4
2022-08-18T12:40:02.754Z,36.4
2022-08-18T13:00:04.164Z,34.7
2022-08-18T13:20:03.047Z,31
2022-08-18T13:40:02.603Z,30
2022-08-18T14:00:02.372Z,29.7
2022-08-18T14:20:02.713Z,30.2
2022-08-18T14:40:02.483Z,30.7
2022-08-18T15:00:02.503Z,31.4
2022-08-18T15:20:02.785Z,30.4
2022-08-18T15:40:02.790Z,29.3
2022-08-18T16:00:02.655Z,27.2
2022-08-18T16:20:02.631Z,25.9
2022-08-18T16:40:03.362Z,25.2
2022-08-18T17:00:02.949Z,24.4
2022-08-18T17:20:02.661Z,24
2022-08-18T17:40:02.936Z,23.7
2022-08-18T18:00:02.475Z,23.4
2022-08-18T18:20:02.407Z,23
2022-08-18T18:40:04.235Z,22.7
2022-08-18T19:00:09.301Z,22.5
2022-08-18T19:20:03.098Z,22.6
2022-08-18T19:40:03.167Z,22.5
2022-08-18T20:00:02.929Z,22.6
2022-08-18T20:20:02.873Z,22.6
2022-08-18T20:40:02.357Z,22.4
2022-08-18T21:00:02.745Z,22.4
2022-08-18T21:20:02.404Z,22.2
2022-08-18T21:40:02.970Z,22.3
2022-08-18T22:00:02.647Z,22.2
2022-08-18T22:20:02.500Z,22.3
2022-08-18T22:40:03.101Z,22.1
2022-08-18T23:00:02.582Z,22
2022-08-18T23:20:02.456Z,22
2022-08-18T23:40:02.846Z,22
